sensor_id;sensor_type;location;lat;lon;timestamp;P1;durP1;ratioP1;P2;durP2;ratioP2
48805;SDS011;34625;47.176;27.548;2022-08-21T00:00:12;3.25;;;2.92;;
48805;SDS011;34625;47.176;27.548;2022-08-21T00:03:02;3.17;;;2.67;;
48805;SDS011;34625;47.176;27.548;2022-08-21T00:05:30;6.53;;;2.90;;
48805;SDS011;34625;47.176;27.548;2022-08-21T00:07:58;3.63;;;3.08;;
48805;SDS011;34625;47.176;27.548;2022-08-21T00:10:24;4.13;;;3.20;;
48805;SDS011;34625;47.176;27.548;2022-08-21T00:12:50;6.13;;;2.92;;
48805;SDS011;34625;47.176;27.548;2022-08-21T00:15:18;5.50;;;3.20;;
48805;SDS011;34625;47.176;27.548;2022-08-21T00:17:48;5.07;;;2.58;;
48805;SDS011;34625;47.176;27.548;2022-08-21T00:20:15;5.97;;;3.17;;
48805;SDS011;34625;47.176;27.548;2022-08-21T00:22:42;4.25;;;2.97;;
48805;SDS011;34625;47.176;27.548;2022-08-21T00:25:09;5.00;;;2.97;;
48805;SDS011;34625;47.176;27.548;2022-08-21T00:27:35;5.85;;;3.05;;
48805;SDS011;34625;47.176;27.548;2022-08-21T00:30:03;4.22;;;2.80;;
48805;SDS011;34625;47.176;27.548;2022-08-21T00:32:30;5.07;;;2.97;;
48805;SDS011;34625;47.176;27.548;2022-08-21T00:34:57;7.40;;;2.92;;
48805;SDS011;34625;47.176;27.548;2022-08-21T00:37:23;4.00;;;3.35;;
48805;SDS011;34625;47.176;27.548;2022-08-21T00:39:49;5.22;;;3.08;;
48805;SDS011;34625;47.176;27.548;2022-08-21T00:42:16;5.22;;;3.25;;
48805;SDS011;34625;47.176;27.548;2022-08-21T00:44:46;4.18;;;3.78;;
48805;SDS011;34625;47.176;27.548;2022-08-21T00:47:13;6.15;;;3.38;;
48805;SDS011;34625;47.176;27.548;2022-08-21T00:49:40;4.57;;;3.08;;
48805;SDS011;34625;47.176;27.548;2022-08-21T00:52:07;8.65;;;3.08;;
48805;SDS011;34625;47.176;27.548;2022-08-21T00:54:37;5.75;;;3.70;;
48805;SDS011;34625;47.176;27.548;2022-08-21T00:59:55;4.95;;;2.80;;
48805;SDS011;34625;47.176;27.548;2022-08-21T01:02:23;3.35;;;2.90;;
48805;SDS011;34625;47.176;27.548;2022-08-21T01:04:51;3.60;;;2.78;;
48805;SDS011;34625;47.176;27.548;2022-08-21T01:07:17;6.35;;;3.10;;
48805;SDS011;34625;47.176;27.548;2022-08-21T01:09:48;8.13;;;3.78;;
48805;SDS011;34625;47.176;27.548;2022-08-21T01:12:14;11.73;;;3.83;;
48805;SDS011;34625;47.176;27.548;2022-08-21T01:14:41;9.43;;;4.72;;
48805;SDS011;34625;47.176;27.548;2022-08-21T01:17:13;13.48;;;5.75;;
48805;SDS011;34625;47.176;27.548;2022-08-21T01:19:41;10.80;;;6.57;;
48805;SDS011;34625;47.176;27.548;2022-08-21T01:22:08;9.45;;;5.45;;
48805;SDS011;34625;47.176;27.548;2022-08-21T01:24:35;7.50;;;5.07;;
48805;SDS011;34625;47.176;27.548;2022-08-21T01:27:01;9.27;;;4.97;;
48805;SDS011;34625;47.176;27.548;2022-08-21T01:32:15;4.60;;;4.10;;
48805;SDS011;34625;47.176;27.548;2022-08-21T01:34:44;6.20;;;4.20;;
48805;SDS011;34625;47.176;27.548;2022-08-21T01:37:11;9.77;;;4.53;;
48805;SDS011;34625;47.176;27.548;2022-08-21T01:39:38;12.52;;;4.60;;
48805;SDS011;34625;47.176;27.548;2022-08-21T01:42:05;8.50;;;4.97;;
48805;SDS011;34625;47.176;27.548;2022-08-21T01:44:31;7.88;;;4.43;;
48805;SDS011;34625;47.176;27.548;2022-08-21T01:46:58;7.78;;;4.35;;
48805;SDS011;34625;47.176;27.548;2022-08-21T01:49:28;5.40;;;3.75;;
48805;SDS011;34625;47.176;27.548;2022-08-21T01:51:54;6.05;;;3.88;;
48805;SDS011;34625;47.176;27.548;2022-08-21T01:54:20;9.93;;;4.13;;
48805;SDS011;34625;47.176;27.548;2022-08-21T01:56:49;5.57;;;3.25;;
48805;SDS011;34625;47.176;27.548;2022-08-21T01:59:17;3.10;;;2.60;;
48805;SDS011;34625;47.176;27.548;2022-08-21T02:01:43;7.55;;;3.55;;
48805;SDS011;34625;47.176;27.548;2022-08-21T02:04:09;5.50;;;3.90;;
48805;SDS011;34625;47.176;27.548;2022-08-21T02:06:36;3.97;;;3.58;;
48805;SDS011;34625;47.176;27.548;2022-08-21T02:09:03;9.93;;;3.45;;
48805;SDS011;34625;47.176;27.548;2022-08-21T02:11:31;9.15;;;3.33;;
48805;SDS011;34625;47.176;27.548;2022-08-21T02:13:58;3.95;;;3.10;;
48805;SDS011;34625;47.176;27.548;2022-08-21T02:16:24;4.35;;;3.03;;
48805;SDS011;34625;47.176;27.548;2022-08-21T02:18:50;4.57;;;3.22;;
48805;SDS011;34625;47.176;27.548;2022-08-21T02:21:16;11.20;;;3.70;;
48805;SDS011;34625;47.176;27.548;2022-08-21T02:23:42;7.18;;;3.85;;
48805;SDS011;34625;47.176;27.548;2022-08-21T02:26:09;5.68;;;4.00;;
48805;SDS011;34625;47.176;27.548;2022-08-21T02:28:36;5.85;;;3.40;;
48805;SDS011;34625;47.176;27.548;2022-08-21T02:31:03;8.07;;;3.63;;
48805;SDS011;34625;47.176;27.548;2022-08-21T02:33:30;5.78;;;3.38;;
48805;SDS011;34625;47.176;27.548;2022-08-21T02:35:56;5.63;;;3.90;;
48805;SDS011;34625;47.176;27.548;2022-08-21T02:38:25;8.18;;;3.63;;
48805;SDS011;34625;47.176;27.548;2022-08-21T02:40:53;7.35;;;3.35;;
48805;SDS011;34625;47.176;27.548;2022-08-21T02:43:21;6.45;;;3.40;;
48805;SDS011;34625;47.176;27.548;2022-08-21T02:45:49;7.35;;;3.50;;
48805;SDS011;34625;47.176;27.548;2022-08-21T02:48:18;5.25;;;3.15;;
48805;SDS011;34625;47.176;27.548;2022-08-21T02:50:47;3.92;;;3.00;;
48805;SDS011;34625;47.176;27.548;2022-08-21T02:53:17;3.72;;;3.05;;
48805;SDS011;34625;47.176;27.548;2022-08-21T02:55:45;5.65;;;3.63;;
48805;SDS011;34625;47.176;27.548;2022-08-21T02:58:13;3.53;;;3.20;;
48805;SDS011;34625;47.176;27.548;2022-08-21T03:00:41;3.78;;;3.47;;
48805;SDS011;34625;47.176;27.548;2022-08-21T03:03:07;4.97;;;3.28;;
48805;SDS011;34625;47.176;27.548;2022-08-21T03:05:34;3.83;;;2.83;;
48805;SDS011;34625;47.176;27.548;2022-08-21T03:08:03;5.53;;;3.20;;
48805;SDS011;34625;47.176;27.548;2022-08-21T03:10:33;3.90;;;3.47;;
48805;SDS011;34625;47.176;27.548;2022-08-21T03:12:59;3.95;;;3.00;;
48805;SDS011;34625;47.176;27.548;2022-08-21T03:15:26;5.18;;;3.00;;
48805;SDS011;34625;47.176;27.548;2022-08-21T03:17:52;3.20;;;2.88;;
48805;SDS011;34625;47.176;27.548;2022-08-21T03:20:20;5.25;;;3.33;;
48805;SDS011;34625;47.176;27.548;2022-08-21T03:22:53;3.90;;;2.88;;
48805;SDS011;34625;47.176;27.548;2022-08-21T03:25:20;3.25;;;2.95;;
48805;SDS011;34625;47.176;27.548;2022-08-21T03:27:48;3.60;;;3.30;;
48805;SDS011;34625;47.176;27.548;2022-08-21T03:30:15;5.60;;;3.55;;
48805;SDS011;34625;47.176;27.548;2022-08-21T03:32:42;5.10;;;3.75;;
48805;SDS011;34625;47.176;27.548;2022-08-21T03:35:08;6.32;;;3.28;;
48805;SDS011;34625;47.176;27.548;2022-08-21T03:37:35;5.45;;;3.42;;
48805;SDS011;34625;47.176;27.548;2022-08-21T03:40:02;4.22;;;3.08;;
48805;SDS011;34625;47.176;27.548;2022-08-21T03:42:33;3.90;;;3.50;;
48805;SDS011;34625;47.176;27.548;2022-08-21T03:45:00;8.68;;;3.45;;
48805;SDS011;34625;47.176;27.548;2022-08-21T03:47:26;4.05;;;3.10;;
48805;SDS011;34625;47.176;27.548;2022-08-21T03:49:52;3.53;;;3.22;;
48805;SDS011;34625;47.176;27.548;2022-08-21T03:52:19;3.20;;;2.90;;
48805;SDS011;34625;47.176;27.548;2022-08-21T03:54:45;3.63;;;3.33;;
48805;SDS011;34625;47.176;27.548;2022-08-21T03:57:11;5.13;;;3.45;;
48805;SDS011;34625;47.176;27.548;2022-08-21T03:59:38;5.35;;;3.55;;
48805;SDS011;34625;47.176;27.548;2022-08-21T04:02:05;4.88;;;3.40;;
48805;SDS011;34625;47.176;27.548;2022-08-21T04:04:32;4.00;;;3.60;;
48805;SDS011;34625;47.176;27.548;2022-08-21T04:06:58;7.03;;;3.53;;
48805;SDS011;34625;47.176;27.548;2022-08-21T04:09:25;7.20;;;3.50;;
48805;SDS011;34625;47.176;27.548;2022-08-21T04:11:51;5.20;;;4.35;;
48805;SDS011;34625;47.176;27.548;2022-08-21T04:14:18;6.45;;;4.18;;
48805;SDS011;34625;47.176;27.548;2022-08-21T04:16:44;6.78;;;4.03;;
48805;SDS011;34625;47.176;27.548;2022-08-21T04:19:11;5.45;;;4.30;;
48805;SDS011;34625;47.176;27.548;2022-08-21T04:21:41;7.45;;;5.25;;
48805;SDS011;34625;47.176;27.548;2022-08-21T04:24:08;7.03;;;5.40;;
48805;SDS011;34625;47.176;27.548;2022-08-21T04:26:35;9.75;;;5.25;;
48805;SDS011;34625;47.176;27.548;2022-08-21T04:29:03;11.15;;;5.25;;
48805;SDS011;34625;47.176;27.548;2022-08-21T04:31:32;6.32;;;5.15;;
48805;SDS011;34625;47.176;27.548;2022-08-21T04:33:59;12.98;;;5.20;;
48805;SDS011;34625;47.176;27.548;2022-08-21T04:36:25;7.28;;;4.97;;
48805;SDS011;34625;47.176;27.548;2022-08-21T04:38:51;5.90;;;5.03;;
48805;SDS011;34625;47.176;27.548;2022-08-21T04:41:17;6.50;;;5.20;;
48805;SDS011;34625;47.176;27.548;2022-08-21T04:43:43;11.25;;;5.10;;
48805;SDS011;34625;47.176;27.548;2022-08-21T04:46:09;5.82;;;4.93;;
48805;SDS011;34625;47.176;27.548;2022-08-21T04:48:36;12.30;;;5.32;;
48805;SDS011;34625;47.176;27.548;2022-08-21T04:51:05;11.68;;;5.53;;
48805;SDS011;34625;47.176;27.548;2022-08-21T04:53:44;11.32;;;6.38;;
48805;SDS011;34625;47.176;27.548;2022-08-21T04:56:24;10.32;;;6.38;;
48805;SDS011;34625;47.176;27.548;2022-08-21T04:58:57;9.55;;;6.15;;
48805;SDS011;34625;47.176;27.548;2022-08-21T05:01:29;5.75;;;5.07;;
48805;SDS011;34625;47.176;27.548;2022-08-21T05:03:58;7.40;;;4.93;;
48805;SDS011;34625;47.176;27.548;2022-08-21T05:06:26;9.48;;;5.38;;
48805;SDS011;34625;47.176;27.548;2022-08-21T05:08:55;8.00;;;5.78;;
48805;SDS011;34625;47.176;27.548;2022-08-21T05:11:22;10.68;;;5.22;;
48805;SDS011;34625;47.176;27.548;2022-08-21T05:13:48;5.68;;;4.43;;
48805;SDS011;34625;47.176;27.548;2022-08-21T05:16:15;7.57;;;4.55;;
48805;SDS011;34625;47.176;27.548;2022-08-21T05:18:42;9.10;;;4.82;;
48805;SDS011;34625;47.176;27.548;2022-08-21T05:21:08;6.93;;;4.32;;
48805;SDS011;34625;47.176;27.548;2022-08-21T05:23:35;5.85;;;4.43;;
48805;SDS011;34625;47.176;27.548;2022-08-21T05:26:02;7.38;;;4.40;;
48805;SDS011;34625;47.176;27.548;2022-08-21T05:28:30;6.68;;;4.80;;
48805;SDS011;34625;47.176;27.548;2022-08-21T05:30:57;5.13;;;3.92;;
48805;SDS011;34625;47.176;27.548;2022-08-21T05:33:23;5.00;;;4.32;;
48805;SDS011;34625;47.176;27.548;2022-08-21T05:35:50;5.30;;;3.78;;
48805;SDS011;34625;47.176;27.548;2022-08-21T05:38:18;4.60;;;4.10;;
48805;SDS011;34625;47.176;27.548;2022-08-21T05:40:44;4.85;;;3.55;;
48805;SDS011;34625;47.176;27.548;2022-08-21T05:43:11;6.50;;;3.85;;
48805;SDS011;34625;47.176;27.548;2022-08-21T05:45:37;4.32;;;3.42;;
48805;SDS011;34625;47.176;27.548;2022-08-21T05:48:10;7.88;;;3.72;;
48805;SDS011;34625;47.176;27.548;2022-08-21T05:50:39;5.95;;;3.67;;
48805;SDS011;34625;47.176;27.548;2022-08-21T05:53:06;6.38;;;3.83;;
48805;SDS011;34625;47.176;27.548;2022-08-21T05:55:32;9.07;;;3.75;;
48805;SDS011;34625;47.176;27.548;2022-08-21T05:57:58;8.07;;;3.45;;
48805;SDS011;34625;47.176;27.548;2022-08-21T06:00:24;4.80;;;3.30;;
48805;SDS011;34625;47.176;27.548;2022-08-21T06:02:51;5.35;;;4.40;;
48805;SDS011;34625;47.176;27.548;2022-08-21T06:05:17;4.50;;;3.78;;
48805;SDS011;34625;47.176;27.548;2022-08-21T06:07:44;7.35;;;3.63;;
48805;SDS011;34625;47.176;27.548;2022-08-21T06:10:10;4.65;;;4.13;;
48805;SDS011;34625;47.176;27.548;2022-08-21T06:12:36;9.00;;;3.67;;
48805;SDS011;34625;47.176;27.548;2022-08-21T06:15:02;3.88;;;3.45;;
48805;SDS011;34625;47.176;27.548;2022-08-21T06:17:29;4.70;;;3.63;;
48805;SDS011;34625;47.176;27.548;2022-08-21T06:19:55;7.75;;;4.13;;
48805;SDS011;34625;47.176;27.548;2022-08-21T06:22:21;8.48;;;3.97;;
48805;SDS011;34625;47.176;27.548;2022-08-21T06:24:47;8.10;;;3.92;;
48805;SDS011;34625;47.176;27.548;2022-08-21T06:27:13;9.15;;;4.55;;
48805;SDS011;34625;47.176;27.548;2022-08-21T06:29:40;11.25;;;3.78;;
48805;SDS011;34625;47.176;27.548;2022-08-21T06:32:10;5.18;;;4.38;;
48805;SDS011;34625;47.176;27.548;2022-08-21T06:34:37;5.90;;;3.45;;
48805;SDS011;34625;47.176;27.548;2022-08-21T06:37:05;7.18;;;4.20;;
48805;SDS011;34625;47.176;27.548;2022-08-21T06:39:32;5.82;;;4.28;;
48805;SDS011;34625;47.176;27.548;2022-08-21T06:41:59;11.57;;;4.30;;
48805;SDS011;34625;47.176;27.548;2022-08-21T06:44:27;8.40;;;4.22;;
48805;SDS011;34625;47.176;27.548;2022-08-21T06:46:55;6.53;;;3.70;;
48805;SDS011;34625;47.176;27.548;2022-08-21T06:49:22;4.75;;;3.88;;
48805;SDS011;34625;47.176;27.548;2022-08-21T06:51:48;5.47;;;4.53;;
48805;SDS011;34625;47.176;27.548;2022-08-21T06:54:14;7.20;;;4.38;;
48805;SDS011;34625;47.176;27.548;2022-08-21T06:56:40;7.13;;;4.25;;
48805;SDS011;34625;47.176;27.548;2022-08-21T06:59:06;6.55;;;3.88;;
48805;SDS011;34625;47.176;27.548;2022-08-21T07:01:32;5.15;;;3.60;;
48805;SDS011;34625;47.176;27.548;2022-08-21T07:03:59;5.45;;;3.40;;
48805;SDS011;34625;47.176;27.548;2022-08-21T07:06:25;4.63;;;3.22;;
48805;SDS011;34625;47.176;27.548;2022-08-21T07:08:51;9.48;;;4.15;;
48805;SDS011;34625;47.176;27.548;2022-08-21T07:11:18;4.32;;;3.83;;
48805;SDS011;34625;47.176;27.548;2022-08-21T07:13:46;6.68;;;4.05;;
48805;SDS011;34625;47.176;27.548;2022-08-21T07:16:12;7.88;;;3.65;;
48805;SDS011;34625;47.176;27.548;2022-08-21T07:18:38;4.68;;;3.17;;
48805;SDS011;34625;47.176;27.548;2022-08-21T07:21:05;3.85;;;3.25;;
48805;SDS011;34625;47.176;27.548;2022-08-21T07:23:33;6.40;;;3.97;;
48805;SDS011;34625;47.176;27.548;2022-08-21T07:26:03;3.70;;;2.90;;
48805;SDS011;34625;47.176;27.548;2022-08-21T07:28:29;4.35;;;3.78;;
48805;SDS011;34625;47.176;27.548;2022-08-21T07:30:57;5.68;;;3.58;;
48805;SDS011;34625;47.176;27.548;2022-08-21T07:33:24;6.78;;;4.13;;
48805;SDS011;34625;47.176;27.548;2022-08-21T07:35:52;7.28;;;3.75;;
48805;SDS011;34625;47.176;27.548;2022-08-21T07:38:18;10.88;;;3.72;;
48805;SDS011;34625;47.176;27.548;2022-08-21T07:40:45;6.47;;;3.78;;
48805;SDS011;34625;47.176;27.548;2022-08-21T07:43:13;8.25;;;4.43;;
48805;SDS011;34625;47.176;27.548;2022-08-21T07:45:42;3.97;;;3.40;;
48805;SDS011;34625;47.176;27.548;2022-08-21T07:48:08;7.10;;;3.88;;
48805;SDS011;34625;47.176;27.548;2022-08-21T07:50:35;3.70;;;3.17;;
48805;SDS011;34625;47.176;27.548;2022-08-21T07:53:01;5.10;;;3.88;;
48805;SDS011;34625;47.176;27.548;2022-08-21T07:55:28;5.32;;;4.22;;
48805;SDS011;34625;47.176;27.548;2022-08-21T07:57:54;5.07;;;4.13;;
48805;SDS011;34625;47.176;27.548;2022-08-21T08:00:22;8.68;;;4.50;;
48805;SDS011;34625;47.176;27.548;2022-08-21T08:02:50;5.97;;;3.65;;
48805;SDS011;34625;47.176;27.548;2022-08-21T08:05:19;13.80;;;4.53;;
48805;SDS011;34625;47.176;27.548;2022-08-21T08:07:47;4.07;;;3.42;;
48805;SDS011;34625;47.176;27.548;2022-08-21T08:10:14;6.80;;;3.80;;
48805;SDS011;34625;47.176;27.548;2022-08-21T08:12:41;9.90;;;4.70;;
48805;SDS011;34625;47.176;27.548;2022-08-21T08:15:12;4.57;;;4.10;;
48805;SDS011;34625;47.176;27.548;2022-08-21T08:17:44;4.80;;;3.78;;
48805;SDS011;34625;47.176;27.548;2022-08-21T08:20:11;6.20;;;4.38;;
48805;SDS011;34625;47.176;27.548;2022-08-21T08:22:39;6.28;;;4.20;;
48805;SDS011;34625;47.176;27.548;2022-08-21T08:25:07;8.77;;;4.22;;
48805;SDS011;34625;47.176;27.548;2022-08-21T08:27:34;5.60;;;4.20;;
48805;SDS011;34625;47.176;27.548;2022-08-21T08:30:00;7.72;;;4.72;;
48805;SDS011;34625;47.176;27.548;2022-08-21T08:32:27;8.13;;;4.57;;
48805;SDS011;34625;47.176;27.548;2022-08-21T08:34:53;5.13;;;4.45;;
48805;SDS011;34625;47.176;27.548;2022-08-21T08:37:19;7.30;;;4.90;;
48805;SDS011;34625;47.176;27.548;2022-08-21T08:39:46;6.10;;;4.40;;
48805;SDS011;34625;47.176;27.548;2022-08-21T08:44:44;7.55;;;4.00;;
48805;SDS011;34625;47.176;27.548;2022-08-21T08:47:12;8.10;;;4.50;;
48805;SDS011;34625;47.176;27.548;2022-08-21T08:52:27;6.88;;;4.43;;
48805;SDS011;34625;47.176;27.548;2022-08-21T08:55:08;5.28;;;3.78;;
48805;SDS011;34625;47.176;27.548;2022-08-21T08:57:39;4.50;;;3.33;;
48805;SDS011;34625;47.176;27.548;2022-08-21T09:00:11;6.03;;;3.60;;
48805;SDS011;34625;47.176;27.548;2022-08-21T09:02:40;4.75;;;3.92;;
48805;SDS011;34625;47.176;27.548;2022-08-21T09:05:09;5.28;;;3.72;;
48805;SDS011;34625;47.176;27.548;2022-08-21T09:19:36;3.40;;;3.10;;
48805;SDS011;34625;47.176;27.548;2022-08-21T09:22:28;4.55;;;3.38;;
48805;SDS011;34625;47.176;27.548;2022-08-21T09:27:29;3.50;;;3.10;;
48805;SDS011;34625;47.176;27.548;2022-08-21T09:29:56;3.95;;;2.65;;
48805;SDS011;34625;47.176;27.548;2022-08-21T09:32:25;7.82;;;3.67;;
48805;SDS011;34625;47.176;27.548;2022-08-21T09:34:57;3.92;;;3.58;;
48805;SDS011;34625;47.176;27.548;2022-08-21T09:37:26;6.20;;;3.38;;
48805;SDS011;34625;47.176;27.548;2022-08-21T09:39:54;3.55;;;3.25;;
48805;SDS011;34625;47.176;27.548;2022-08-21T09:42:25;5.07;;;3.58;;
48805;SDS011;34625;47.176;27.548;2022-08-21T09:47:40;6.45;;;3.17;;
48805;SDS011;34625;47.176;27.548;2022-08-21T09:50:13;6.18;;;3.45;;
48805;SDS011;34625;47.176;27.548;2022-08-21T09:52:47;5.47;;;3.92;;
48805;SDS011;34625;47.176;27.548;2022-08-21T09:55:18;4.32;;;3.92;;
48805;SDS011;34625;47.176;27.548;2022-08-21T09:58:11;5.38;;;3.28;;
48805;SDS011;34625;47.176;27.548;2022-08-21T10:00:37;5.88;;;3.50;;
48805;SDS011;34625;47.176;27.548;2022-08-21T10:03:16;4.80;;;3.35;;
48805;SDS011;34625;47.176;27.548;2022-08-21T10:08:46;8.70;;;3.67;;
48805;SDS011;34625;47.176;27.548;2022-08-21T10:11:13;3.67;;;3.10;;
48805;SDS011;34625;47.176;27.548;2022-08-21T10:24:58;7.95;;;3.63;;
48805;SDS011;34625;47.176;27.548;2022-08-21T10:27:37;4.03;;;2.97;;
48805;SDS011;34625;47.176;27.548;2022-08-21T10:30:41;5.25;;;3.92;;
48805;SDS011;34625;47.176;27.548;2022-08-21T10:36:02;8.27;;;3.75;;
48805;SDS011;34625;47.176;27.548;2022-08-21T10:47:00;4.05;;;3.00;;
48805;SDS011;34625;47.176;27.548;2022-08-21T10:55:16;6.55;;;3.25;;
48805;SDS011;34625;47.176;27.548;2022-08-21T11:00:17;5.47;;;3.13;;
48805;SDS011;34625;47.176;27.548;2022-08-21T11:02:51;4.50;;;3.08;;
48805;SDS011;34625;47.176;27.548;2022-08-21T11:05:30;3.70;;;2.75;;
48805;SDS011;34625;47.176;27.548;2022-08-21T11:08:06;3.15;;;2.35;;
48805;SDS011;34625;47.176;27.548;2022-08-21T11:11:10;3.75;;;3.00;;
48805;SDS011;34625;47.176;27.548;2022-08-21T11:13:54;3.45;;;3.15;;
48805;SDS011;34625;47.176;27.548;2022-08-21T11:21:38;3.57;;;3.13;;
48805;SDS011;34625;47.176;27.548;2022-08-21T11:29:50;4.20;;;3.25;;
48805;SDS011;34625;47.176;27.548;2022-08-21T11:38:42;3.55;;;2.95;;
48805;SDS011;34625;47.176;27.548;2022-08-21T11:49:43;6.13;;;3.10;;
48805;SDS011;34625;47.176;27.548;2022-08-21T11:52:29;5.72;;;3.70;;
48805;SDS011;34625;47.176;27.548;2022-08-21T11:55:14;7.53;;;3.92;;
48805;SDS011;34625;47.176;27.548;2022-08-21T12:00:39;7.60;;;3.90;;
48805;SDS011;34625;47.176;27.548;2022-08-21T12:03:22;4.93;;;4.10;;
48805;SDS011;34625;47.176;27.548;2022-08-21T12:05:56;3.65;;;3.05;;
48805;SDS011;34625;47.176;27.548;2022-08-21T12:13:59;8.43;;;3.60;;
48805;SDS011;34625;47.176;27.548;2022-08-21T12:21:58;4.03;;;3.63;;
48805;SDS011;34625;47.176;27.548;2022-08-21T12:26:57;4.15;;;3.75;;
48805;SDS011;34625;47.176;27.548;2022-08-21T12:29:26;3.50;;;3.20;;
48805;SDS011;34625;47.176;27.548;2022-08-21T12:32:04;4.53;;;4.07;;
48805;SDS011;34625;47.176;27.548;2022-08-21T12:34:47;4.50;;;3.53;;
48805;SDS011;34625;47.176;27.548;2022-08-21T12:40:03;10.68;;;4.15;;
48805;SDS011;34625;47.176;27.548;2022-08-21T12:42:41;5.13;;;3.65;;
48805;SDS011;34625;47.176;27.548;2022-08-21T12:47:57;5.20;;;3.47;;
48805;SDS011;34625;47.176;27.548;2022-08-21T12:50:45;8.75;;;3.63;;
48805;SDS011;34625;47.176;27.548;2022-08-21T12:53:26;6.15;;;3.53;;
48805;SDS011;34625;47.176;27.548;2022-08-21T12:55:57;5.90;;;3.67;;
48805;SDS011;34625;47.176;27.548;2022-08-21T12:58:27;5.13;;;3.47;;
48805;SDS011;34625;47.176;27.548;2022-08-21T13:00:58;5.05;;;3.47;;
48805;SDS011;34625;47.176;27.548;2022-08-21T13:03:30;4.60;;;3.63;;
48805;SDS011;34625;47.176;27.548;2022-08-21T13:05:59;6.45;;;3.00;;
48805;SDS011;34625;47.176;27.548;2022-08-21T13:08:26;8.50;;;3.80;;
48805;SDS011;34625;47.176;27.548;2022-08-21T13:10:58;4.97;;;3.53;;
48805;SDS011;34625;47.176;27.548;2022-08-21T13:13:27;6.35;;;3.28;;
48805;SDS011;34625;47.176;27.548;2022-08-21T13:15:58;6.93;;;3.95;;
48805;SDS011;34625;47.176;27.548;2022-08-21T13:18:29;4.60;;;3.65;;
48805;SDS011;34625;47.176;27.548;2022-08-21T13:21:13;7.20;;;3.92;;
48805;SDS011;34625;47.176;27.548;2022-08-21T13:23:40;10.82;;;4.70;;
48805;SDS011;34625;47.176;27.548;2022-08-21T13:26:17;5.80;;;4.28;;
48805;SDS011;34625;47.176;27.548;2022-08-21T13:28:45;6.03;;;4.38;;
48805;SDS011;34625;47.176;27.548;2022-08-21T13:31:15;5.82;;;3.80;;
48805;SDS011;34625;47.176;27.548;2022-08-21T13:33:44;6.47;;;3.75;;
48805;SDS011;34625;47.176;27.548;2022-08-21T13:38:51;4.38;;;3.53;;
48805;SDS011;34625;47.176;27.548;2022-08-21T13:43:56;5.72;;;3.40;;
48805;SDS011;34625;47.176;27.548;2022-08-21T13:46:26;4.82;;;4.15;;
48805;SDS011;34625;47.176;27.548;2022-08-21T13:48:56;10.07;;;3.83;;
48805;SDS011;34625;47.176;27.548;2022-08-21T13:51:23;4.78;;;3.53;;
48805;SDS011;34625;47.176;27.548;2022-08-21T13:53:50;11.20;;;3.97;;
48805;SDS011;34625;47.176;27.548;2022-08-21T13:56:24;4.43;;;3.50;;
48805;SDS011;34625;47.176;27.548;2022-08-21T13:58:52;4.20;;;3.13;;
48805;SDS011;34625;47.176;27.548;2022-08-21T14:01:25;10.48;;;3.85;;
48805;SDS011;34625;47.176;27.548;2022-08-21T14:04:00;5.88;;;3.65;;
48805;SDS011;34625;47.176;27.548;2022-08-21T14:06:33;4.05;;;2.95;;
48805;SDS011;34625;47.176;27.548;2022-08-21T14:09:07;7.05;;;3.08;;
48805;SDS011;34625;47.176;27.548;2022-08-21T14:11:54;7.13;;;3.87;;
48805;SDS011;34625;47.176;27.548;2022-08-21T14:16:53;4.05;;;3.22;;
48805;SDS011;34625;47.176;27.548;2022-08-21T14:19:38;3.90;;;3.50;;
48805;SDS011;34625;47.176;27.548;2022-08-21T14:22:23;5.38;;;3.38;;
48805;SDS011;34625;47.176;27.548;2022-08-21T14:25:07;4.55;;;3.83;;
48805;SDS011;34625;47.176;27.548;2022-08-21T14:27:39;3.08;;;2.75;;
48805;SDS011;34625;47.176;27.548;2022-08-21T14:32:53;4.30;;;3.33;;
48805;SDS011;34625;47.176;27.548;2022-08-21T14:35:19;6.40;;;3.78;;
48805;SDS011;34625;47.176;27.548;2022-08-21T14:37:47;5.95;;;3.60;;
48805;SDS011;34625;47.176;27.548;2022-08-21T14:40:17;5.90;;;3.55;;
48805;SDS011;34625;47.176;27.548;2022-08-21T14:42:44;4.45;;;3.50;;
48805;SDS011;34625;47.176;27.548;2022-08-21T14:47:54;4.00;;;3.03;;
48805;SDS011;34625;47.176;27.548;2022-08-21T14:50:21;5.47;;;3.83;;
48805;SDS011;34625;47.176;27.548;2022-08-21T14:52:47;4.07;;;3.30;;
48805;SDS011;34625;47.176;27.548;2022-08-21T14:55:14;3.60;;;3.17;;
48805;SDS011;34625;47.176;27.548;2022-08-21T14:57:45;7.20;;;3.85;;
48805;SDS011;34625;47.176;27.548;2022-08-21T15:00:14;3.03;;;2.73;;
48805;SDS011;34625;47.176;27.548;2022-08-21T15:02:42;7.95;;;3.33;;
48805;SDS011;34625;47.176;27.548;2022-08-21T15:05:09;5.53;;;4.03;;
48805;SDS011;34625;47.176;27.548;2022-08-21T15:07:35;6.35;;;3.53;;
48805;SDS011;34625;47.176;27.548;2022-08-21T15:10:01;4.88;;;3.33;;
48805;SDS011;34625;47.176;27.548;2022-08-21T15:12:28;6.68;;;3.65;;
48805;SDS011;34625;47.176;27.548;2022-08-21T15:14:54;6.20;;;3.50;;
48805;SDS011;34625;47.176;27.548;2022-08-21T15:17:21;7.22;;;3.53;;
48805;SDS011;34625;47.176;27.548;2022-08-21T15:19:47;5.53;;;3.75;;
48805;SDS011;34625;47.176;27.548;2022-08-21T15:22:13;3.95;;;3.53;;
48805;SDS011;34625;47.176;27.548;2022-08-21T15:24:39;4.32;;;3.60;;
48805;SDS011;34625;47.176;27.548;2022-08-21T15:27:06;4.32;;;3.45;;
48805;SDS011;34625;47.176;27.548;2022-08-21T15:29:33;4.00;;;3.20;;
48805;SDS011;34625;47.176;27.548;2022-08-21T15:32:14;4.90;;;3.65;;
48805;SDS011;34625;47.176;27.548;2022-08-21T15:34:40;11.23;;;3.75;;
48805;SDS011;34625;47.176;27.548;2022-08-21T15:37:06;3.97;;;3.58;;
48805;SDS011;34625;47.176;27.548;2022-08-21T15:39:34;7.97;;;4.40;;
48805;SDS011;34625;47.176;27.548;2022-08-21T15:42:00;4.57;;;2.80;;
48805;SDS011;34625;47.176;27.548;2022-08-21T15:44:28;7.50;;;3.65;;
48805;SDS011;34625;47.176;27.548;2022-08-21T15:46:54;6.50;;;4.30;;
48805;SDS011;34625;47.176;27.548;2022-08-21T15:49:21;6.05;;;3.47;;
48805;SDS011;34625;47.176;27.548;2022-08-21T15:51:49;4.40;;;3.42;;
48805;SDS011;34625;47.176;27.548;2022-08-21T15:54:15;4.10;;;3.30;;
48805;SDS011;34625;47.176;27.548;2022-08-21T15:56:43;5.85;;;3.65;;
48805;SDS011;34625;47.176;27.548;2022-08-21T15:59:19;4.17;;;3.70;;
48805;SDS011;34625;47.176;27.548;2022-08-21T16:01:48;5.25;;;3.85;;
48805;SDS011;34625;47.176;27.548;2022-08-21T16:04:19;4.93;;;4.03;;
48805;SDS011;34625;47.176;27.548;2022-08-21T16:06:49;7.05;;;3.88;;
48805;SDS011;34625;47.176;27.548;2022-08-21T16:09:16;8.25;;;4.22;;
48805;SDS011;34625;47.176;27.548;2022-08-21T16:11:42;5.20;;;3.40;;
48805;SDS011;34625;47.176;27.548;2022-08-21T16:14:10;8.15;;;3.78;;
48805;SDS011;34625;47.176;27.548;2022-08-21T16:16:40;6.63;;;3.58;;
48805;SDS011;34625;47.176;27.548;2022-08-21T16:19:07;8.73;;;3.70;;
48805;SDS011;34625;47.176;27.548;2022-08-21T16:21:35;7.03;;;3.67;;
48805;SDS011;34625;47.176;27.548;2022-08-21T16:24:02;6.70;;;4.40;;
48805;SDS011;34625;47.176;27.548;2022-08-21T16:26:28;6.22;;;4.10;;
48805;SDS011;34625;47.176;27.548;2022-08-21T16:28:55;3.72;;;3.35;;
48805;SDS011;34625;47.176;27.548;2022-08-21T16:31:23;4.63;;;3.70;;
48805;SDS011;34625;47.176;27.548;2022-08-21T16:33:51;5.05;;;3.65;;
48805;SDS011;34625;47.176;27.548;2022-08-21T16:36:19;5.85;;;3.75;;
48805;SDS011;34625;47.176;27.548;2022-08-21T16:38:47;7.55;;;4.05;;
48805;SDS011;34625;47.176;27.548;2022-08-21T16:41:14;4.95;;;3.63;;
48805;SDS011;34625;47.176;27.548;2022-08-21T16:43:42;8.57;;;3.70;;
48805;SDS011;34625;47.176;27.548;2022-08-21T16:46:09;5.38;;;4.30;;